createdAt,value
2023-02-24T00:02:15.247Z,50.00
2023-02-24T00:04:44.198Z,51.90
2023-02-24T00:07:14.034Z,51.90
2023-02-24T00:09:44.701Z,51.80
2023-02-24T00:12:17.645Z,51.80
2023-02-24T00:14:47.473Z,52.00
2023-02-24T00:17:16.300Z,51.80
2023-02-24T00:19:46.591Z,51.50
2023-02-24T00:22:15.195Z,51.30
2023-02-24T00:24:43.740Z,51.20
2023-02-24T00:27:13.658Z,51.10
2023-02-24T00:29:42.806Z,51.10
2023-02-24T00:32:14.880Z,51.20
2023-02-24T00:34:44.303Z,51.10
2023-02-24T00:37:15.437Z,51.00
2023-02-24T00:39:44.450Z,50.90
2023-02-24T00:42:15.026Z,51.10
2023-02-24T00:44:47.112Z,51.80
2023-02-24T00:47:18.018Z,52.10
2023-02-24T00:49:46.996Z,52.20
2023-02-24T00:52:18.327Z,52.20
2023-02-24T00:54:49.280Z,52.10
2023-02-24T00:57:21.496Z,51.80
2023-02-24T00:59:51.852Z,52.10
2023-02-24T01:02:21.514Z,52.40
2023-02-24T01:04:50.124Z,52.50
2023-02-24T01:07:18.811Z,52.40
2023-02-24T01:09:47.661Z,52.90
2023-02-24T01:12:39.248Z,51.90
2023-02-24T01:15:12.051Z,52.00
2023-02-24T01:17:40.813Z,52.20
2023-02-24T01:20:16.709Z,52.40
2023-02-24T01:22:47.965Z,52.40
2023-02-24T01:25:16.862Z,52.40
2023-02-24T01:27:45.487Z,52.50
2023-02-24T01:30:17.702Z,52.40
2023-02-24T01:32:48.228Z,52.20
2023-02-24T01:35:17.860Z,52.20
2023-02-24T01:37:46.495Z,52.00
2023-02-24T01:40:21.616Z,51.80
2023-02-24T01:42:51.935Z,51.70
2023-02-24T01:45:28.775Z,51.80
2023-02-24T01:48:03.656Z,51.80
2023-02-24T01:50:36.297Z,52.00
2023-02-24T01:53:08.496Z,52.40
2023-02-24T01:55:47.055Z,52.50
2023-02-24T01:58:24.003Z,52.50
2023-02-24T02:00:54.391Z,52.50
2023-02-24T02:03:31.070Z,52.60
2023-02-24T02:06:07.752Z,52.70
2023-02-24T02:08:40.817Z,53.00
2023-02-24T02:11:12.528Z,53.40
2023-02-24T02:13:46.312Z,53.90
2023-02-24T02:16:54.251Z,54.00
2023-02-24T02:20:15.567Z,53.80
2023-02-24T02:23:28.768Z,53.70
2023-02-24T02:26:22.186Z,53.60
2023-02-24T02:29:26.625Z,53.70
2023-02-24T02:32:43.961Z,53.60
2023-02-24T02:35:20.209Z,53.50
2023-02-24T02:37:57.169Z,53.30
2023-02-24T02:40:37.637Z,53.30
2023-02-24T02:43:17.338Z,53.30
2023-02-24T02:45:56.059Z,53.00
2023-02-24T02:48:35.258Z,52.90
2023-02-24T02:51:11.543Z,52.70
2023-02-24T02:53:51.291Z,52.50
2023-02-24T02:56:25.394Z,52.20
2023-02-24T02:58:57.913Z,52.10
2023-02-24T03:01:55.560Z,52.60
2023-02-24T03:04:27.728Z,51.80
2023-02-24T03:07:03.579Z,51.60
2023-02-24T03:09:38.310Z,51.40
2023-02-24T03:12:12.342Z,51.20
2023-02-24T03:14:51.185Z,51.10
2023-02-24T03:17:25.909Z,51.40
2023-02-24T03:20:02.262Z,51.90
2023-02-24T03:22:40.680Z,52.30
2023-02-24T03:25:10.766Z,52.80
2023-02-24T03:27:48.987Z,53.30
2023-02-24T03:30:23.705Z,53.50
2023-02-24T03:33:01.799Z,53.60
2023-02-24T03:35:34.432Z,53.50
2023-02-24T03:38:06.548Z,53.50
2023-02-24T03:40:36.189Z,53.30
2023-02-24T03:43:12.389Z,53.20
2023-02-24T03:45:43.077Z,53.60
2023-02-24T03:48:13.377Z,53.70
2023-02-24T03:50:43.769Z,53.80
2023-02-24T03:53:33.222Z,53.80
2023-02-24T03:56:19.805Z,53.60
2023-02-24T03:59:04.114Z,53.60
2023-02-24T04:01:46.556Z,53.60
2023-02-24T04:04:27.555Z,53.50
2023-02-24T04:07:02.137Z,53.40
2023-02-24T04:09:44.848Z,53.30
2023-02-24T04:12:22.497Z,53.20
2023-02-24T04:14:59.149Z,53.40
2023-02-24T04:17:39.013Z,52.80
2023-02-24T04:20:16.721Z,53.50
2023-02-24T04:22:50.167Z,52.50
2023-02-24T04:25:25.306Z,52.30
2023-02-24T04:27:58.393Z,52.20
2023-02-24T04:30:32.738Z,52.00
2023-02-24T04:33:01.404Z,51.90
2023-02-24T04:35:30.159Z,51.50
2023-02-24T04:37:58.917Z,51.50
2023-02-24T04:40:29.186Z,51.70
2023-02-24T04:42:57.793Z,51.90
2023-02-24T04:45:28.596Z,51.50
2023-02-24T04:48:02.133Z,51.40
2023-02-24T04:50:34.290Z,51.30
2023-02-24T04:53:06.991Z,51.70
2023-02-24T04:55:41.093Z,51.80
2023-02-24T04:58:12.637Z,52.00
2023-02-24T05:00:42.357Z,52.30
2023-02-24T05:03:13.116Z,52.20
2023-02-24T05:05:43.042Z,52.10
2023-02-24T05:08:15.880Z,52.30
2023-02-24T05:10:48.147Z,52.40
2023-02-24T05:13:20.530Z,52.50
2023-02-24T05:15:50.016Z,52.60
2023-02-24T05:18:20.447Z,52.40
2023-02-24T05:21:09.133Z,52.40
2023-02-24T05:23:40.861Z,52.50
2023-02-24T05:26:12.475Z,52.30
2023-02-24T05:28:42.934Z,52.30
2023-02-24T05:31:15.517Z,52.40
2023-02-24T05:33:46.278Z,52.50
2023-02-24T05:36:18.348Z,52.60
2023-02-24T05:38:48.018Z,52.40
2023-02-24T05:41:20.247Z,52.40
2023-02-24T05:43:53.199Z,52.40
2023-02-24T05:46:28.340Z,52.20
2023-02-24T05:48:58.118Z,52.10
2023-02-24T05:51:27.837Z,52.80
2023-02-24T05:53:56.501Z,52.30
2023-02-24T05:56:27.381Z,52.40
2023-02-24T05:59:02.288Z,52.40
2023-02-24T06:01:31.783Z,52.30
2023-02-24T06:04:05.840Z,52.30
2023-02-24T06:06:36.610Z,52.20
2023-02-24T06:09:10.789Z,52.30
2023-02-24T06:11:42.475Z,52.40
2023-02-24T06:14:13.325Z,52.40
2023-02-24T06:16:43.687Z,52.40
2023-02-24T06:19:15.305Z,52.50
2023-02-24T06:21:45.799Z,52.60
2023-02-24T06:24:18.145Z,53.30
2023-02-24T06:26:50.320Z,52.30
2023-02-24T06:29:20.745Z,52.30
2023-02-24T06:31:50.173Z,53.10
2023-02-24T06:34:19.469Z,53.60
2023-02-24T06:36:49.152Z,53.70
2023-02-24T06:39:17.809Z,54.20
2023-02-24T06:41:52.892Z,54.10
2023-02-24T06:44:21.381Z,53.40
2023-02-24T06:46:50.224Z,53.30
2023-02-24T06:49:19.758Z,53.20
2023-02-24T06:51:48.713Z,53.20
2023-02-24T06:54:17.602Z,53.10
2023-02-24T06:56:47.934Z,52.80
2023-02-24T06:59:21.852Z,53.00
2023-02-24T07:01:50.757Z,53.10
2023-02-24T07:04:20.980Z,53.40
2023-02-24T07:06:52.579Z,53.30
2023-02-24T07:09:25.146Z,53.00
2023-02-24T07:11:56.872Z,52.90
2023-02-24T07:14:30.770Z,53.00
2023-02-24T07:17:00.158Z,52.90
2023-02-24T07:19:32.448Z,52.70
2023-02-24T07:22:03.852Z,52.80
2023-02-24T07:24:36.551Z,52.80
2023-02-24T07:27:09.872Z,52.90
2023-02-24T07:29:38.855Z,52.80
2023-02-24T07:32:10.136Z,52.90
2023-02-24T07:34:40.418Z,53.10
2023-02-24T07:37:11.407Z,53.10
2023-02-24T07:39:43.203Z,53.00
2023-02-24T07:42:13.841Z,53.20
2023-02-24T07:44:44.627Z,53.40
2023-02-24T07:47:13.261Z,53.20
2023-02-24T07:49:41.809Z,53.00
2023-02-24T07:52:11.712Z,52.90
2023-02-24T07:54:40.630Z,52.80
2023-02-24T07:57:14.122Z,53.00
2023-02-24T07:59:47.249Z,53.10
2023-02-24T08:02:16.852Z,53.40
2023-02-24T08:04:51.561Z,53.60
2023-02-24T08:07:24.968Z,53.50
2023-02-24T08:10:24.399Z,53.40
2023-02-24T08:13:03.271Z,53.50
2023-02-24T08:15:35.063Z,53.30
2023-02-24T08:18:03.683Z,53.30
2023-02-24T08:20:52.013Z,52.80
2023-02-24T08:23:23.632Z,51.90
2023-02-24T08:25:53.726Z,52.00
2023-02-24T08:28:26.959Z,52.10
2023-02-24T08:30:56.999Z,52.30
2023-02-24T08:33:30.229Z,52.00
2023-02-24T08:36:02.144Z,51.70
2023-02-24T08:38:42.210Z,51.70
2023-02-24T08:41:20.396Z,51.60
2023-02-24T08:43:50.981Z,51.60
2023-02-24T08:46:26.734Z,51.30
2023-02-24T08:49:00.830Z,51.20
2023-02-24T08:51:34.992Z,52.10
2023-02-24T08:54:11.177Z,51.50
2023-02-24T08:56:43.697Z,51.10
2023-02-24T08:59:29.526Z,51.60
2023-02-24T09:02:14.598Z,52.40
2023-02-24T09:04:44.940Z,52.40
2023-02-24T09:07:18.681Z,50.90
2023-02-24T09:09:47.409Z,50.40
2023-02-24T09:12:24.795Z,51.90
2023-02-24T09:14:56.905Z,51.80
2023-02-24T09:17:41.190Z,51.40
2023-02-24T09:20:31.455Z,51.10
2023-02-24T09:23:03.551Z,49.80
2023-02-24T09:25:44.798Z,49.40
2023-02-24T09:28:18.315Z,50.00
2023-02-24T09:30:54.471Z,49.50
2023-02-24T09:33:39.006Z,48.70
2023-02-24T09:36:10.792Z,47.60
2023-02-24T09:38:59.390Z,47.30
2023-02-24T09:41:53.580Z,47.10
2023-02-24T09:44:34.332Z,45.80
2023-02-24T09:47:15.906Z,46.10
2023-02-24T09:49:56.415Z,45.90
2023-02-24T09:52:39.849Z,46.20
2023-02-24T09:55:25.155Z,44.40
2023-02-24T09:58:34.827Z,44.80
2023-02-24T10:01:42.967Z,45.30
2023-02-24T10:04:49.321Z,43.70
2023-02-24T10:07:30.111Z,43.80
2023-02-24T10:10:19.886Z,43.60
2023-02-24T10:12:58.711Z,43.70
2023-02-24T10:15:56.888Z,43.40
2023-02-24T10:18:32.977Z,42.90
2023-02-24T10:21:18.080Z,43.20
2023-02-24T10:24:05.666Z,44.20
2023-02-24T10:26:59.531Z,43.00
2023-02-24T10:29:45.459Z,42.80
2023-02-24T10:32:24.722Z,41.80
2023-02-24T10:34:54.307Z,42.50
2023-02-24T10:37:29.536Z,41.40
2023-02-24T10:40:09.861Z,41.50
2023-02-24T10:42:45.949Z,41.40
2023-02-24T10:45:23.834Z,40.60
2023-02-24T10:47:57.753Z,39.20
2023-02-24T10:50:32.541Z,40.80
2023-02-24T10:53:26.729Z,40.90
2023-02-24T10:56:17.504Z,40.10
2023-02-24T10:58:56.380Z,41.20
2023-02-24T11:01:43.927Z,42.50
2023-02-24T11:04:43.880Z,42.50
2023-02-24T11:07:24.740Z,41.40
2023-02-24T11:10:13.815Z,43.20
2023-02-24T11:13:10.544Z,42.50
2023-02-24T11:16:02.993Z,42.00
2023-02-24T11:18:32.971Z,42.00
2023-02-24T11:21:05.193Z,43.40
2023-02-24T11:23:40.914Z,42.90
2023-02-24T11:26:18.091Z,43.30
2023-02-24T11:29:13.672Z,44.10
2023-02-24T11:31:58.692Z,44.10
2023-02-24T11:34:38.287Z,44.70
2023-02-24T11:37:24.374Z,44.40
2023-02-24T11:40:01.993Z,43.80
2023-02-24T11:42:38.662Z,44.50
2023-02-24T11:45:23.864Z,43.90
2023-02-24T11:47:59.998Z,44.70
2023-02-24T11:50:39.741Z,44.40
2023-02-24T11:53:29.166Z,44.60
2023-02-24T11:56:04.412Z,44.70
2023-02-24T11:58:45.404Z,45.40
2023-02-24T12:01:24.427Z,45.50
2023-02-24T12:04:03.036Z,45.70
2023-02-24T12:06:40.291Z,45.80
2023-02-24T12:09:16.193Z,46.20
2023-02-24T12:11:55.030Z,46.50
2023-02-24T12:14:34.684Z,47.20
2023-02-24T12:17:18.510Z,47.00
2023-02-24T12:20:01.443Z,46.90
2023-02-24T12:22:44.695Z,46.40
2023-02-24T12:25:15.228Z,46.50
2023-02-24T12:28:06.586Z,46.70
2023-02-24T12:30:57.768Z,46.50
2023-02-24T12:33:49.293Z,46.80
2023-02-24T12:36:34.554Z,46.20
2023-02-24T12:39:16.295Z,45.50
2023-02-24T12:42:04.223Z,43.80
2023-02-24T12:44:45.392Z,43.50
2023-02-24T12:47:18.559Z,42.50
2023-02-24T12:50:23.714Z,41.80
2023-02-24T12:53:01.545Z,41.70
2023-02-24T12:55:40.474Z,41.80
2023-02-24T12:58:17.081Z,41.50
2023-02-24T13:01:01.025Z,40.90
2023-02-24T13:04:00.942Z,38.90
2023-02-24T13:06:53.037Z,38.20
2023-02-24T13:09:33.677Z,37.90
2023-02-24T13:12:11.174Z,37.60
2023-02-24T13:14:42.895Z,38.30
2023-02-24T13:17:22.775Z,38.70
2023-02-24T13:19:53.641Z,38.70
2023-02-24T13:22:31.468Z,39.90
2023-02-24T13:25:21.668Z,40.20
2023-02-24T13:28:01.175Z,41.20
2023-02-24T13:30:40.519Z,41.10
2023-02-24T13:33:30.979Z,38.60
2023-02-24T13:36:14.808Z,37.00
2023-02-24T13:38:48.183Z,36.10
2023-02-24T13:41:37.779Z,36.60
2023-02-24T13:44:28.195Z,36.70
2023-02-24T13:47:53.826Z,35.70
2023-02-24T13:50:32.442Z,35.00
2023-02-24T13:53:24.830Z,35.00
2023-02-24T13:56:17.522Z,35.30
2023-02-24T13:59:06.161Z,35.60
2023-02-24T14:01:49.976Z,34.70
2023-02-24T14:04:24.483Z,35.00
2023-02-24T14:06:57.531Z,34.50
2023-02-24T14:09:33.542Z,33.10
2023-02-24T14:12:13.795Z,33.70
2023-02-24T14:14:47.064Z,34.40
2023-02-24T14:17:28.370Z,34.70
2023-02-24T14:20:09.832Z,33.90
2023-02-24T14:22:46.670Z,34.70
2023-02-24T14:25:16.784Z,34.60
2023-02-24T14:27:50.135Z,34.40
2023-02-24T14:30:32.631Z,35.30
2023-02-24T14:33:02.635Z,35.60
2023-02-24T14:35:36.068Z,35.70
2023-02-24T14:38:06.033Z,35.20
2023-02-24T14:40:35.199Z,35.20
2023-02-24T14:43:15.252Z,35.60
2023-02-24T14:45:50.561Z,35.70
2023-02-24T14:48:26.646Z,36.40
2023-02-24T14:50:59.664Z,36.40
2023-02-24T14:53:32.217Z,36.80
2023-02-24T14:56:06.102Z,36.90
2023-02-24T14:58:45.437Z,36.20
2023-02-24T15:01:24.137Z,36.00
2023-02-24T15:03:58.220Z,36.10
2023-02-24T15:06:33.163Z,35.80
2023-02-24T15:09:13.317Z,36.30
2023-02-24T15:11:41.938Z,35.70
2023-02-24T15:14:25.675Z,36.10
2023-02-24T15:16:58.005Z,35.90
2023-02-24T15:19:32.417Z,36.20
2023-02-24T15:22:01.565Z,36.50
2023-02-24T15:24:32.423Z,36.60
2023-02-24T15:27:03.654Z,36.40
2023-02-24T15:29:33.597Z,37.10
2023-02-24T15:32:07.263Z,37.40
2023-02-24T15:34:38.034Z,37.60
2023-02-24T15:37:17.544Z,38.30
2023-02-24T15:39:46.515Z,39.70
2023-02-24T15:42:28.383Z,39.50
2023-02-24T15:45:00.848Z,39.70
2023-02-24T15:47:32.538Z,39.80
2023-02-24T15:50:01.191Z,40.70
2023-02-24T15:52:31.115Z,40.90
2023-02-24T15:55:02.530Z,41.30
2023-02-24T15:57:33.496Z,41.30
2023-02-24T16:00:08.998Z,41.90
2023-02-24T16:02:37.455Z,42.90
2023-02-24T16:05:06.642Z,43.60
2023-02-24T16:07:39.086Z,43.80
2023-02-24T16:10:09.886Z,43.70
2023-02-24T16:12:47.337Z,44.00
2023-02-24T16:15:25.021Z,43.70
2023-02-24T16:17:54.127Z,44.10
2023-02-24T16:20:28.590Z,45.10
2023-02-24T16:22:58.513Z,45.50
2023-02-24T16:25:29.556Z,45.10
2023-02-24T16:27:58.323Z,46.00
2023-02-24T16:30:31.556Z,46.60
2023-02-24T16:33:02.319Z,47.00
2023-02-24T16:35:30.881Z,47.30
2023-02-24T16:38:00.428Z,48.60
2023-02-24T16:40:31.944Z,48.70
2023-02-24T16:43:00.712Z,48.40
2023-02-24T16:45:31.844Z,48.20
2023-02-24T16:48:03.150Z,48.20
2023-02-24T16:50:36.162Z,48.30
2023-02-24T16:53:04.613Z,48.50
2023-02-24T16:55:33.123Z,48.70
2023-02-24T16:58:01.601Z,48.40
2023-02-24T17:00:31.562Z,48.90
2023-02-24T17:03:01.051Z,49.30
2023-02-24T17:05:29.740Z,50.20
2023-02-24T17:07:58.967Z,50.40
2023-02-24T17:10:28.051Z,50.50
2023-02-24T17:12:56.537Z,51.70
2023-02-24T17:15:27.702Z,52.20
2023-02-24T17:17:58.302Z,52.50
2023-02-24T17:20:26.791Z,52.90
2023-02-24T17:22:55.305Z,53.10
2023-02-24T17:25:28.341Z,53.30
2023-02-24T17:27:58.888Z,54.10
2023-02-24T17:30:31.716Z,54.70
2023-02-24T17:33:02.326Z,54.70
2023-02-24T17:35:31.278Z,53.70
2023-02-24T17:37:59.779Z,53.70
2023-02-24T17:40:28.363Z,53.60
2023-02-24T17:42:56.733Z,53.70
2023-02-24T17:45:25.205Z,54.00
2023-02-24T17:47:53.829Z,53.90
2023-02-24T17:50:23.938Z,53.90
2023-02-24T17:52:52.493Z,52.90
2023-02-24T17:55:21.050Z,52.50
2023-02-24T17:57:49.513Z,53.30
2023-02-24T18:00:19.171Z,53.10
2023-02-24T18:02:47.704Z,52.40
2023-02-24T18:05:16.226Z,52.60
2023-02-24T18:07:46.144Z,53.00
2023-02-24T18:10:15.050Z,53.40
2023-02-24T18:12:43.690Z,53.80
2023-02-24T18:15:14.401Z,53.90
2023-02-24T18:17:42.876Z,53.60
2023-02-24T18:20:14.267Z,53.70
2023-02-24T18:22:42.926Z,53.20
2023-02-24T18:25:13.720Z,52.90
2023-02-24T18:27:42.337Z,52.50
2023-02-24T18:30:13.286Z,52.10
2023-02-24T18:32:44.646Z,51.60
2023-02-24T18:35:14.444Z,51.90
2023-02-24T18:37:43.741Z,51.80
2023-02-24T18:40:14.923Z,51.90
2023-02-24T18:42:43.955Z,51.90
2023-02-24T18:45:12.789Z,51.50
2023-02-24T18:47:41.342Z,52.20
2023-02-24T18:50:11.761Z,53.20
2023-02-24T18:52:40.338Z,53.90
2023-02-24T18:55:10.238Z,54.20
2023-02-24T18:57:40.427Z,54.80
2023-02-24T19:00:13.979Z,55.20
2023-02-24T19:02:42.870Z,55.20
2023-02-24T19:05:12.502Z,55.30
2023-02-24T19:07:41.080Z,55.10
2023-02-24T19:10:11.426Z,55.80
2023-02-24T19:12:41.320Z,55.90
2023-02-24T19:15:11.417Z,56.00
2023-02-24T19:17:40.148Z,55.80
2023-02-24T19:20:11.277Z,55.20
2023-02-24T19:22:39.881Z,54.90
2023-02-24T19:25:09.449Z,55.40
2023-02-24T19:27:38.011Z,55.60
2023-02-24T19:30:10.309Z,55.70
2023-02-24T19:32:41.691Z,55.40
2023-02-24T19:35:10.634Z,55.50
2023-02-24T19:37:39.316Z,55.50
2023-02-24T19:40:09.801Z,55.70
2023-02-24T19:42:38.461Z,55.00
2023-02-24T19:45:10.682Z,55.80
2023-02-24T19:47:42.788Z,55.60
2023-02-24T19:50:13.421Z,55.70
2023-02-24T19:52:42.931Z,56.00
2023-02-24T19:55:13.406Z,57.10
2023-02-24T19:57:42.106Z,57.40
2023-02-24T20:00:14.049Z,57.10
2023-02-24T20:02:42.651Z,57.50
2023-02-24T20:05:11.559Z,57.20
2023-02-24T20:07:40.286Z,56.90
2023-02-24T20:10:10.442Z,56.40
2023-02-24T20:12:39.965Z,56.30
2023-02-24T20:15:12.038Z,56.50
2023-02-24T20:17:40.703Z,54.50
2023-02-24T20:20:13.192Z,55.40
2023-02-24T20:22:41.884Z,56.20
2023-02-24T20:25:12.660Z,55.10
2023-02-24T20:27:41.378Z,55.50
2023-02-24T20:30:13.855Z,56.40
2023-02-24T20:32:42.644Z,55.90
2023-02-24T20:35:11.732Z,55.80
2023-02-24T20:37:40.340Z,55.80
2023-02-24T20:40:12.566Z,55.80
2023-02-24T20:42:41.217Z,55.00
2023-02-24T20:45:12.720Z,54.10
2023-02-24T20:47:41.348Z,53.00
2023-02-24T20:50:11.029Z,53.50
2023-02-24T20:52:40.097Z,53.70
2023-02-24T20:55:09.525Z,53.90
2023-02-24T20:57:38.009Z,54.10
2023-02-24T21:00:08.323Z,53.60
2023-02-24T21:02:41.228Z,53.00
2023-02-24T21:05:10.478Z,53.50
2023-02-24T21:07:39.233Z,53.40
2023-02-24T21:10:08.562Z,52.90
2023-02-24T21:12:37.101Z,52.90
2023-02-24T21:15:06.992Z,53.00
2023-02-24T21:17:35.682Z,52.30
2023-02-24T21:20:06.815Z,52.60
2023-02-24T21:22:35.348Z,52.20
2023-02-24T21:25:03.910Z,52.20
2023-02-24T21:27:32.589Z,53.00
2023-02-24T21:30:01.165Z,53.40
2023-02-24T21:32:29.719Z,52.30
2023-02-24T21:34:58.862Z,53.90
2023-02-24T21:37:29.140Z,54.30
2023-02-24T21:39:57.676Z,54.10
2023-02-24T21:42:27.795Z,54.40
2023-02-24T21:45:02.476Z,55.20
2023-02-24T21:47:32.295Z,55.50
2023-02-24T21:50:00.873Z,56.00
2023-02-24T21:52:31.811Z,55.80
2023-02-24T21:55:00.324Z,55.70
2023-02-24T21:57:28.982Z,55.50
2023-02-24T21:59:57.967Z,55.60
2023-02-24T22:02:26.940Z,56.40
2023-02-24T22:04:55.501Z,57.50
2023-02-24T22:07:24.026Z,57.80
2023-02-24T22:09:53.971Z,56.80
2023-02-24T22:12:22.529Z,56.90
2023-02-24T22:14:51.162Z,56.90
2023-02-24T22:17:19.667Z,56.00
2023-02-24T22:19:48.357Z,55.90
2023-02-24T22:22:16.963Z,56.30
2023-02-24T22:24:45.546Z,56.70
2023-02-24T22:27:19.654Z,57.50
2023-02-24T22:29:48.568Z,58.40
2023-02-24T22:32:18.340Z,58.30
2023-02-24T22:34:47.068Z,58.30
2023-02-24T22:37:16.792Z,58.40
2023-02-24T22:39:45.379Z,57.70
2023-02-24T22:42:15.316Z,57.10
2023-02-24T22:44:44.082Z,57.20
2023-02-24T22:47:12.732Z,56.60
2023-02-24T22:49:41.312Z,55.90
2023-02-24T22:52:11.733Z,56.30
2023-02-24T22:54:40.341Z,56.20
2023-02-24T22:57:08.945Z,55.60
2023-02-24T22:59:39.398Z,55.00
2023-02-24T23:02:09.525Z,54.40
2023-02-24T23:04:38.298Z,54.00
2023-02-24T23:07:06.876Z,54.30
2023-02-24T23:09:36.265Z,54.30
2023-02-24T23:12:05.529Z,54.00
2023-02-24T23:14:34.114Z,54.00
2023-02-24T23:17:05.011Z,53.90
2023-02-24T23:19:34.155Z,53.80
2023-02-24T23:22:03.222Z,54.00
2023-02-24T23:24:31.854Z,53.60
2023-02-24T23:27:01.699Z,54.00
2023-02-24T23:29:31.650Z,53.80
2023-02-24T23:32:00.414Z,54.50
2023-02-24T23:34:30.709Z,55.10
2023-02-24T23:36:59.306Z,55.30
2023-02-24T23:39:27.879Z,56.50
2023-02-24T23:41:57.846Z,56.70
2023-02-24T23:44:26.658Z,56.40
2023-02-24T23:46:58.252Z,56.30
2023-02-24T23:49:36.149Z,56.10
2023-02-24T23:52:12.603Z,56.50
2023-02-24T23:54:41.088Z,56.40
2023-02-24T23:57:11.723Z,56.20
2023-02-24T23:59:40.488Z,55.70
